createdAt,value
2024-01-17T00:01:50.249Z,69.64
2024-01-17T00:03:52.139Z,69.77
2024-01-17T00:05:53.957Z,69.77
2024-01-17T00:07:55.882Z,69.69
2024-01-17T00:09:57.698Z,69.76
2024-01-17T00:12:03.393Z,69.83
2024-01-17T00:14:05.258Z,69.69
2024-01-17T00:16:07.052Z,69.71
2024-01-17T00:18:08.938Z,69.33
2024-01-17T00:20:11.237Z,68.86
2024-01-17T00:22:13.554Z,68.97
2024-01-17T00:24:15.915Z,69.06
2024-01-17T00:26:17.777Z,68.90
2024-01-17T00:28:19.541Z,69.04
2024-01-17T00:30:21.325Z,69.13
2024-01-17T00:32:23.239Z,69.07
2024-01-17T00:34:25.013Z,69.01
2024-01-17T00:36:27.127Z,69.16
2024-01-17T00:38:29.119Z,69.28
2024-01-17T00:40:32.363Z,69.28
2024-01-17T00:42:34.136Z,69.48
2024-01-17T00:44:39.724Z,69.06
2024-01-17T00:46:42.031Z,69.38
2024-01-17T00:48:43.996Z,69.11
2024-01-17T00:50:46.337Z,69.26
2024-01-17T00:52:48.190Z,69.22
2024-01-17T00:54:49.884Z,69.27
2024-01-17T00:56:51.490Z,69.23
2024-01-17T00:58:53.005Z,69.58
2024-01-17T01:00:55.106Z,69.99
2024-01-17T01:02:56.850Z,69.53
2024-01-17T01:04:58.549Z,69.35
2024-01-17T01:07:00.117Z,69.41
2024-01-17T01:09:01.932Z,69.71
2024-01-17T01:11:04.050Z,69.66
2024-01-17T01:13:05.764Z,69.31
2024-01-17T01:15:08.029Z,69.12
2024-01-17T01:17:09.805Z,69.32
2024-01-17T01:19:11.695Z,69.17
2024-01-17T01:21:13.618Z,69.11
2024-01-17T01:23:15.170Z,68.76
2024-01-17T01:25:16.829Z,68.99
2024-01-17T01:27:18.447Z,68.58
2024-01-17T01:29:20.136Z,68.99
2024-01-17T01:31:21.781Z,68.76
2024-01-17T01:33:23.983Z,68.89
2024-01-17T01:35:25.753Z,69.33
2024-01-17T01:37:27.458Z,69.52
2024-01-17T01:39:29.831Z,69.35
2024-01-17T01:41:31.416Z,69.55
2024-01-17T01:43:32.927Z,69.69
2024-01-17T01:45:34.609Z,69.53
2024-01-17T01:47:37.126Z,69.22
2024-01-17T01:49:38.963Z,68.98
2024-01-17T01:51:45.420Z,69.03
2024-01-17T01:53:50.758Z,69.34
2024-01-17T01:55:54.435Z,69.08
2024-01-17T01:57:55.995Z,68.69
2024-01-17T01:59:58.759Z,68.56
2024-01-17T02:02:00.802Z,68.90
2024-01-17T02:04:03.633Z,68.75
2024-01-17T02:06:05.471Z,68.92
2024-01-17T02:08:07.703Z,69.04
2024-01-17T02:10:09.904Z,69.23
2024-01-17T02:12:12.286Z,69.47
2024-01-17T02:14:14.777Z,69.11
2024-01-17T02:16:16.693Z,69.10
2024-01-17T02:18:18.433Z,69.48
2024-01-17T02:20:20.140Z,68.90
2024-01-17T02:22:21.829Z,68.78
2024-01-17T02:24:26.173Z,68.96
2024-01-17T02:26:27.713Z,68.85
2024-01-17T02:28:31.533Z,69.09
2024-01-17T02:30:33.266Z,69.30
2024-01-17T02:32:38.389Z,69.44
2024-01-17T02:34:40.457Z,68.90
2024-01-17T02:36:42.095Z,68.40
2024-01-17T02:38:43.685Z,68.47
2024-01-17T02:40:45.786Z,68.42
2024-01-17T02:42:48.647Z,69.03
2024-01-17T02:44:52.256Z,69.19
2024-01-17T02:46:53.871Z,68.96
2024-01-17T02:48:55.762Z,69.03
2024-01-17T02:50:57.515Z,68.73
2024-01-17T02:52:59.151Z,68.77
2024-01-17T02:55:00.797Z,68.70
2024-01-17T02:57:02.581Z,68.50
2024-01-17T02:59:04.182Z,68.47
2024-01-17T03:01:05.757Z,68.24
2024-01-17T03:03:07.492Z,68.00
2024-01-17T03:05:09.932Z,67.98
2024-01-17T03:07:11.685Z,67.90
2024-01-17T03:09:13.328Z,67.97
2024-01-17T03:11:14.911Z,67.99
2024-01-17T03:13:16.661Z,68.06
2024-01-17T03:15:18.263Z,67.87
2024-01-17T03:17:19.881Z,68.07
2024-01-17T03:19:21.693Z,68.33
2024-01-17T03:21:23.681Z,68.43
2024-01-17T03:23:25.486Z,68.52
2024-01-17T03:25:27.433Z,68.34
2024-01-17T03:27:29.296Z,67.92
2024-01-17T03:29:31.272Z,67.84
2024-01-17T03:31:32.882Z,67.86
2024-01-17T03:33:34.952Z,67.86
2024-01-17T03:35:36.856Z,67.76
2024-01-17T03:37:38.473Z,67.72
2024-01-17T03:39:45.696Z,67.85
2024-01-17T03:41:47.349Z,68.10
2024-01-17T03:43:49.432Z,68.12
2024-01-17T03:45:52.702Z,68.07
2024-01-17T03:47:54.454Z,68.05
2024-01-17T03:49:56.291Z,68.06
2024-01-17T03:51:58.114Z,67.91
2024-01-17T03:53:59.940Z,67.96
2024-01-17T03:56:01.746Z,68.19
2024-01-17T03:58:03.449Z,68.27
2024-01-17T04:00:06.013Z,68.03
2024-01-17T04:02:07.814Z,67.93
2024-01-17T04:04:09.667Z,67.84
2024-01-17T04:06:11.305Z,67.70
2024-01-17T04:08:13.075Z,67.50
2024-01-17T04:10:14.686Z,67.47
2024-01-17T04:12:16.404Z,67.49
2024-01-17T04:14:17.966Z,67.58
2024-01-17T04:16:19.686Z,67.62
2024-01-17T04:18:21.419Z,67.28
2024-01-17T04:20:23.197Z,67.45
2024-01-17T04:22:24.746Z,67.12
2024-01-17T04:24:26.552Z,67.50
2024-01-17T04:26:28.383Z,67.89
2024-01-17T04:28:30.108Z,68.06
2024-01-17T04:30:31.614Z,68.25
2024-01-17T04:32:36.820Z,68.44
2024-01-17T04:34:41.674Z,69.13
2024-01-17T04:36:43.296Z,68.85
2024-01-17T04:38:45.543Z,68.63
2024-01-17T04:40:47.127Z,68.54
2024-01-17T04:42:50.332Z,68.85
2024-01-17T04:44:52.052Z,68.96
2024-01-17T04:46:53.672Z,69.32
2024-01-17T04:48:55.463Z,69.44
2024-01-17T04:51:00.318Z,69.49
2024-01-17T04:53:01.992Z,68.95
2024-01-17T04:55:03.957Z,68.58
2024-01-17T04:57:06.637Z,68.28
2024-01-17T04:59:08.415Z,68.11
2024-01-17T05:01:10.528Z,68.13
2024-01-17T05:03:12.523Z,68.06
2024-01-17T05:05:14.266Z,68.10
2024-01-17T05:07:16.032Z,67.61
2024-01-17T05:09:19.599Z,67.77
2024-01-17T05:11:23.092Z,67.87
2024-01-17T05:13:24.782Z,67.85
2024-01-17T05:15:26.473Z,67.44
2024-01-17T05:17:28.285Z,67.37
2024-01-17T05:19:30.423Z,67.48
2024-01-17T05:21:32.756Z,67.44
2024-01-17T05:23:34.314Z,67.52
2024-01-17T05:25:35.953Z,67.63
2024-01-17T05:27:37.482Z,67.74
2024-01-17T05:29:44.836Z,67.49
2024-01-17T05:31:46.748Z,67.39
2024-01-17T05:33:48.611Z,67.33
2024-01-17T05:35:50.392Z,67.62
2024-01-17T05:37:52.608Z,67.49
2024-01-17T05:39:54.176Z,67.41
2024-01-17T05:41:55.914Z,67.43
2024-01-17T05:43:58.108Z,67.74
2024-01-17T05:46:00.196Z,67.86
2024-01-17T05:48:02.674Z,67.53
2024-01-17T05:50:10.159Z,67.17
2024-01-17T05:52:11.704Z,67.49
2024-01-17T05:54:13.422Z,67.53
2024-01-17T05:56:15.257Z,67.56
2024-01-17T05:58:16.911Z,67.43
2024-01-17T06:00:20.147Z,67.24
2024-01-17T06:02:21.792Z,66.87
2024-01-17T06:04:23.511Z,67.00
2024-01-17T06:06:25.257Z,66.97
2024-01-17T06:08:26.972Z,66.77
2024-01-17T06:10:29.894Z,66.77
2024-01-17T06:12:32.362Z,66.87
2024-01-17T06:14:33.979Z,66.88
2024-01-17T06:16:35.612Z,66.71
2024-01-17T06:18:37.358Z,66.74
2024-01-17T06:20:39.144Z,66.66
2024-01-17T06:22:41.496Z,66.84
2024-01-17T06:24:43.118Z,67.16
2024-01-17T06:26:45.023Z,67.16
2024-01-17T06:28:46.613Z,67.53
2024-01-17T06:30:48.213Z,67.63
2024-01-17T06:32:49.947Z,67.74
2024-01-17T06:34:52.817Z,67.91
2024-01-17T06:36:54.444Z,67.98
2024-01-17T06:38:56.768Z,67.94
2024-01-17T06:40:58.471Z,68.08
2024-01-17T06:43:00.041Z,68.46
2024-01-17T06:45:01.753Z,68.29
2024-01-17T06:47:04.999Z,68.07
2024-01-17T06:49:06.825Z,68.01
2024-01-17T06:51:08.631Z,68.15
2024-01-17T06:53:10.235Z,68.03
2024-01-17T06:55:11.808Z,67.56
2024-01-17T06:57:13.570Z,67.77
2024-01-17T06:59:15.367Z,67.86
2024-01-17T07:01:16.968Z,67.90
2024-01-17T07:03:18.598Z,67.74
2024-01-17T07:05:20.182Z,67.62
2024-01-17T07:07:21.700Z,67.41
2024-01-17T07:09:23.654Z,67.34
2024-01-17T07:11:25.309Z,67.50
2024-01-17T07:13:27.376Z,67.40
2024-01-17T07:15:29.255Z,67.53
2024-01-17T07:17:30.998Z,67.32
2024-01-17T07:19:36.524Z,67.51
2024-01-17T07:21:43.659Z,67.40
2024-01-17T07:23:45.761Z,67.41
2024-01-17T07:25:47.552Z,67.44
2024-01-17T07:27:49.243Z,67.56
2024-01-17T07:29:50.953Z,67.60
2024-01-17T07:31:52.579Z,67.83
2024-01-17T07:33:54.538Z,67.81
2024-01-17T07:35:56.247Z,68.24
2024-01-17T07:37:59.802Z,68.53
2024-01-17T07:40:01.394Z,68.33
2024-01-17T07:42:04.630Z,68.44
2024-01-17T07:44:08.025Z,68.60
2024-01-17T07:46:09.712Z,68.68
2024-01-17T07:48:12.276Z,68.74
2024-01-17T07:50:14.018Z,68.94
2024-01-17T07:52:15.909Z,68.82
2024-01-17T07:54:18.969Z,68.79
2024-01-17T07:56:20.622Z,68.39
2024-01-17T07:58:22.253Z,67.70
2024-01-17T08:00:25.172Z,65.58
2024-01-17T08:02:26.811Z,62.47
2024-01-17T08:04:28.495Z,59.74
2024-01-17T08:06:30.511Z,57.76
2024-01-17T08:08:32.317Z,54.56
2024-01-17T08:10:34.108Z,52.98
2024-01-17T08:12:35.918Z,50.98
2024-01-17T08:14:37.641Z,49.31
2024-01-17T08:16:39.288Z,48.45
2024-01-17T08:18:41.496Z,46.37
2024-01-17T08:20:44.609Z,45.21
2024-01-17T08:22:46.404Z,42.92
2024-01-17T08:24:47.971Z,43.04
2024-01-17T08:26:49.622Z,42.39
2024-01-17T08:28:51.183Z,40.96
2024-01-17T08:30:52.902Z,40.10
2024-01-17T08:32:55.187Z,38.83
2024-01-17T08:34:57.312Z,38.33
2024-01-17T08:36:59.817Z,38.00
2024-01-17T08:39:01.925Z,37.36
2024-01-17T08:41:03.875Z,36.98
2024-01-17T08:43:06.146Z,36.10
2024-01-17T08:45:08.451Z,35.93
2024-01-17T08:47:10.181Z,35.65
2024-01-17T08:49:12.125Z,34.73
2024-01-17T08:51:13.844Z,34.26
2024-01-17T08:53:16.916Z,34.58
2024-01-17T08:55:18.466Z,34.10
2024-01-17T08:57:20.322Z,33.41
2024-01-17T08:59:21.928Z,33.72
2024-01-17T09:01:26.003Z,33.71
2024-01-17T09:03:30.505Z,32.71
2024-01-17T09:05:32.856Z,32.95
2024-01-17T09:07:34.702Z,32.27
2024-01-17T09:09:36.730Z,32.59
2024-01-17T09:11:39.723Z,32.64
2024-01-17T09:13:41.223Z,32.36
2024-01-17T09:15:42.793Z,32.44
2024-01-17T09:17:44.682Z,32.50
2024-01-17T09:19:48.019Z,32.38
2024-01-17T09:21:55.360Z,32.04
2024-01-17T09:23:57.452Z,32.10
2024-01-17T09:26:00.847Z,31.49
2024-01-17T09:28:03.756Z,31.01
2024-01-17T09:30:06.305Z,31.12
2024-01-17T09:32:07.915Z,31.35
2024-01-17T09:34:09.601Z,31.51
2024-01-17T09:36:13.487Z,31.86
2024-01-17T09:38:15.665Z,31.66
2024-01-17T09:40:17.270Z,31.46
2024-01-17T09:42:22.070Z,31.82
2024-01-17T09:44:23.761Z,31.49
2024-01-17T09:46:27.153Z,31.67
2024-01-17T09:48:29.890Z,31.86
2024-01-17T09:50:31.687Z,31.73
2024-01-17T09:52:34.764Z,32.12
2024-01-17T09:54:42.229Z,32.15
2024-01-17T09:56:47.344Z,31.70
2024-01-17T09:58:52.109Z,31.85
2024-01-17T10:00:56.173Z,32.62
2024-01-17T10:02:58.406Z,32.21
2024-01-17T10:05:02.005Z,32.30
2024-01-17T10:07:03.775Z,32.16
2024-01-17T10:09:05.931Z,32.33
2024-01-17T10:11:07.830Z,32.36
2024-01-17T10:13:09.599Z,32.66
2024-01-17T10:15:17.990Z,33.07
2024-01-17T10:17:20.692Z,33.09
2024-01-17T10:19:26.400Z,33.03
2024-01-17T10:21:28.418Z,33.40
2024-01-17T10:23:30.448Z,33.57
2024-01-17T10:25:42.290Z,33.75
2024-01-17T10:27:43.931Z,33.02
2024-01-17T10:29:45.549Z,33.50
2024-01-17T10:31:47.392Z,33.76
2024-01-17T10:33:52.119Z,33.84
2024-01-17T10:35:54.018Z,33.70
2024-01-17T10:37:56.154Z,33.96
2024-01-17T10:40:10.918Z,34.15
2024-01-17T10:42:21.835Z,33.95
2024-01-17T10:44:24.076Z,34.14
2024-01-17T10:46:26.807Z,33.92
2024-01-17T10:48:28.691Z,33.91
2024-01-17T10:50:31.220Z,33.73
2024-01-17T10:52:37.170Z,33.54
2024-01-17T10:54:51.258Z,33.63
2024-01-17T10:56:55.392Z,33.78
2024-01-17T10:59:00.131Z,34.23
2024-01-17T11:01:07.134Z,34.30
2024-01-17T11:03:10.784Z,34.30
2024-01-17T11:05:16.441Z,34.25
2024-01-17T11:07:19.244Z,34.95
2024-01-17T11:09:26.670Z,35.60
2024-01-17T11:11:30.032Z,36.18
2024-01-17T11:13:32.716Z,36.40
2024-01-17T11:15:37.499Z,36.69
2024-01-17T11:17:42.038Z,37.08
2024-01-17T11:19:45.730Z,36.61
2024-01-17T11:21:48.492Z,37.12
2024-01-17T11:24:02.170Z,37.21
2024-01-17T11:26:30.047Z,37.06
2024-01-17T11:28:48.007Z,37.37
2024-01-17T11:31:20.651Z,37.65
2024-01-17T11:33:23.665Z,38.21
2024-01-17T11:35:41.802Z,38.75
2024-01-17T11:37:43.504Z,39.07
2024-01-17T11:39:45.873Z,39.01
2024-01-17T11:41:50.240Z,39.44
2024-01-17T11:43:55.681Z,39.66
2024-01-17T11:45:58.677Z,39.38
2024-01-17T11:48:13.803Z,40.12
2024-01-17T11:50:15.709Z,40.55
2024-01-17T11:52:29.421Z,40.77
2024-01-17T11:54:30.979Z,40.91
2024-01-17T11:56:33.327Z,41.37
2024-01-17T11:58:46.288Z,41.56
2024-01-17T12:00:51.930Z,42.08
2024-01-17T12:02:53.616Z,42.30
2024-01-17T12:04:58.456Z,42.64
2024-01-17T12:07:00.386Z,42.98
2024-01-17T12:09:02.101Z,43.23
2024-01-17T12:11:04.346Z,43.55
2024-01-17T12:13:06.072Z,43.44
2024-01-17T12:15:08.763Z,43.67
2024-01-17T12:17:10.592Z,43.82
2024-01-17T12:19:14.090Z,44.19
2024-01-17T12:21:16.316Z,44.55
2024-01-17T12:23:23.825Z,44.81
2024-01-17T12:25:25.516Z,44.94
2024-01-17T12:27:33.527Z,45.12
2024-01-17T12:29:38.813Z,44.76
2024-01-17T12:31:40.578Z,45.12
2024-01-17T12:33:42.166Z,45.11
2024-01-17T12:35:43.902Z,45.40
2024-01-17T12:37:45.565Z,45.60
2024-01-17T12:39:47.076Z,45.77
2024-01-17T12:41:55.889Z,45.85
2024-01-17T12:43:57.665Z,45.95
2024-01-17T12:45:59.924Z,46.14
2024-01-17T12:48:03.252Z,46.26
2024-01-17T12:50:05.779Z,46.25
2024-01-17T12:52:07.646Z,46.71
2024-01-17T12:54:09.508Z,46.76
2024-01-17T12:56:13.166Z,46.63
2024-01-17T12:58:15.880Z,46.50
2024-01-17T13:00:21.867Z,46.57
2024-01-17T13:02:24.210Z,46.69
2024-01-17T13:04:25.997Z,46.74
2024-01-17T13:06:27.875Z,46.87
2024-01-17T13:08:30.675Z,46.84
2024-01-17T13:10:34.513Z,46.62
2024-01-17T13:12:36.790Z,46.92
2024-01-17T13:14:41.126Z,46.87
2024-01-17T13:16:42.963Z,46.65
2024-01-17T13:18:44.813Z,46.91
2024-01-17T13:20:46.493Z,46.94
2024-01-17T13:22:50.727Z,47.06
2024-01-17T13:24:55.332Z,47.08
2024-01-17T13:26:58.390Z,47.15
2024-01-17T13:29:01.148Z,47.27
2024-01-17T13:31:02.736Z,47.44
2024-01-17T13:33:08.574Z,47.63
2024-01-17T13:35:10.311Z,47.15
2024-01-17T13:37:12.434Z,47.50
2024-01-17T13:39:14.103Z,47.85
2024-01-17T13:41:16.867Z,47.64
2024-01-17T13:43:18.550Z,47.59
2024-01-17T13:45:21.699Z,48.06
2024-01-17T13:47:23.837Z,48.11
2024-01-17T13:49:27.096Z,48.07
2024-01-17T13:51:32.304Z,48.10
2024-01-17T13:53:34.365Z,48.40
2024-01-17T13:55:35.966Z,48.51
2024-01-17T13:57:38.552Z,48.62
2024-01-17T13:59:43.334Z,48.77
2024-01-17T14:01:45.166Z,48.78
2024-01-17T14:03:48.277Z,49.06
2024-01-17T14:05:50.597Z,49.04
2024-01-17T14:07:52.513Z,49.29
2024-01-17T14:09:54.270Z,49.31
2024-01-17T14:11:55.882Z,49.45
2024-01-17T14:13:57.515Z,49.76
2024-01-17T14:15:59.911Z,49.70
2024-01-17T14:18:02.098Z,49.86
2024-01-17T14:20:06.793Z,49.93
2024-01-17T14:22:09.367Z,50.09
2024-01-17T14:24:11.231Z,50.26
2024-01-17T14:26:14.154Z,50.48
2024-01-17T14:28:15.826Z,50.67
2024-01-17T14:30:17.750Z,50.88
2024-01-17T14:32:20.332Z,51.04
2024-01-17T14:34:23.568Z,51.21
2024-01-17T14:36:25.472Z,51.56
2024-01-17T14:38:27.678Z,51.71
2024-01-17T14:40:29.296Z,51.83
2024-01-17T14:42:31.354Z,51.96
2024-01-17T14:44:33.741Z,52.10
2024-01-17T14:46:35.405Z,52.26
2024-01-17T14:48:37.234Z,52.43
2024-01-17T14:50:38.946Z,52.55
2024-01-17T14:52:41.364Z,52.74
2024-01-17T14:54:43.733Z,52.84
2024-01-17T14:56:45.507Z,52.94
2024-01-17T14:58:47.178Z,53.12
2024-01-17T15:00:49.034Z,53.21
2024-01-17T15:02:50.879Z,53.26
2024-01-17T15:04:52.513Z,53.44
2024-01-17T15:06:54.158Z,53.51
2024-01-17T15:08:55.979Z,53.63
2024-01-17T15:10:57.594Z,53.61
2024-01-17T15:12:59.257Z,53.92
2024-01-17T15:15:00.830Z,53.84
2024-01-17T15:17:02.625Z,53.86
2024-01-17T15:19:06.469Z,54.05
2024-01-17T15:21:13.872Z,54.14
2024-01-17T15:23:15.527Z,54.36
2024-01-17T15:25:17.773Z,54.36
2024-01-17T15:27:19.419Z,54.55
2024-01-17T15:29:21.174Z,54.46
2024-01-17T15:31:23.077Z,54.49
2024-01-17T15:33:26.292Z,54.67
2024-01-17T15:35:28.058Z,54.74
2024-01-17T15:37:29.821Z,54.79
2024-01-17T15:39:33.312Z,54.86
2024-01-17T15:41:36.237Z,55.08
2024-01-17T15:43:38.857Z,55.14
2024-01-17T15:45:40.984Z,55.06
2024-01-17T15:47:42.817Z,55.27
2024-01-17T15:49:44.688Z,55.11
2024-01-17T15:51:46.602Z,55.48
2024-01-17T15:53:48.191Z,55.59
2024-01-17T15:55:49.899Z,55.63
2024-01-17T15:57:51.699Z,55.76
2024-01-17T15:59:53.344Z,55.81
2024-01-17T16:01:54.991Z,56.05
2024-01-17T16:03:56.546Z,56.17
2024-01-17T16:05:58.445Z,56.10
2024-01-17T16:08:01.515Z,56.10
2024-01-17T16:10:05.636Z,56.16
2024-01-17T16:12:07.595Z,56.38
2024-01-17T16:14:09.182Z,56.40
2024-01-17T16:16:15.063Z,56.55
2024-01-17T16:18:16.866Z,56.62
2024-01-17T16:20:22.949Z,56.80
2024-01-17T16:22:26.222Z,56.78
2024-01-17T16:24:28.059Z,57.03
2024-01-17T16:26:29.739Z,57.15
2024-01-17T16:28:31.286Z,57.18
2024-01-17T16:30:32.991Z,57.17
2024-01-17T16:32:38.778Z,57.18
2024-01-17T16:34:41.125Z,57.39
2024-01-17T16:36:42.743Z,57.53
2024-01-17T16:38:46.190Z,57.82
2024-01-17T16:40:48.058Z,57.81
2024-01-17T16:42:49.948Z,58.09
2024-01-17T16:44:51.695Z,58.08
2024-01-17T16:46:54.584Z,58.14
2024-01-17T16:48:56.287Z,58.45
2024-01-17T16:50:57.902Z,58.41
2024-01-17T16:52:59.746Z,58.54
2024-01-17T16:55:01.634Z,58.42
2024-01-17T16:57:04.767Z,58.42
2024-01-17T16:59:06.631Z,58.63
2024-01-17T17:01:09.111Z,58.57
2024-01-17T17:03:10.883Z,58.72
2024-01-17T17:05:12.617Z,58.98
2024-01-17T17:07:14.266Z,58.99
2024-01-17T17:09:17.188Z,58.88
2024-01-17T17:11:19.061Z,59.00
2024-01-17T17:13:20.743Z,59.17
2024-01-17T17:15:22.511Z,59.25
2024-01-17T17:17:24.530Z,59.16
2024-01-17T17:19:26.154Z,59.21
2024-01-17T17:21:27.879Z,59.24
2024-01-17T17:23:29.518Z,59.28
2024-01-17T17:25:31.252Z,59.41
2024-01-17T17:27:32.857Z,59.19
2024-01-17T17:29:34.472Z,59.33
2024-01-17T17:31:36.058Z,59.27
2024-01-17T17:33:37.814Z,59.18
2024-01-17T17:35:39.842Z,59.45
2024-01-17T17:37:41.622Z,59.45
2024-01-17T17:39:43.300Z,59.40
2024-01-17T17:41:44.899Z,59.40
2024-01-17T17:43:46.977Z,59.33
2024-01-17T17:45:48.614Z,59.44
2024-01-17T17:47:51.407Z,59.55
2024-01-17T17:49:53.748Z,59.65
2024-01-17T17:51:55.273Z,59.68
2024-01-17T17:53:57.403Z,59.53
2024-01-17T17:56:00.235Z,59.61
2024-01-17T17:58:01.740Z,59.84
2024-01-17T18:00:05.463Z,59.60
2024-01-17T18:02:07.125Z,59.74
2024-01-17T18:04:08.921Z,59.76
2024-01-17T18:06:10.804Z,59.91
2024-01-17T18:08:12.493Z,60.16
2024-01-17T18:10:14.807Z,60.22
2024-01-17T18:12:17.491Z,60.32
2024-01-17T18:14:19.250Z,60.36
2024-01-17T18:16:24.984Z,60.54
2024-01-17T18:18:27.225Z,60.76
2024-01-17T18:20:28.825Z,60.84
2024-01-17T18:22:30.454Z,61.03
2024-01-17T18:24:32.172Z,61.12
2024-01-17T18:26:33.973Z,61.16
2024-01-17T18:28:36.130Z,61.20
2024-01-17T18:30:38.094Z,61.33
2024-01-17T18:32:39.848Z,61.32
2024-01-17T18:34:41.501Z,61.33
2024-01-17T18:36:44.043Z,61.19
2024-01-17T18:38:45.734Z,61.24
2024-01-17T18:40:47.947Z,61.22
2024-01-17T18:42:50.253Z,61.28
2024-01-17T18:44:51.788Z,61.29
2024-01-17T18:46:53.392Z,61.52
2024-01-17T18:48:55.117Z,61.45
2024-01-17T18:50:57.009Z,61.51
2024-01-17T18:52:58.729Z,61.52
2024-01-17T18:55:00.376Z,61.60
2024-01-17T18:57:02.480Z,61.95
2024-01-17T18:59:05.101Z,61.97
2024-01-17T19:01:06.829Z,62.19
2024-01-17T19:03:10.498Z,62.12
2024-01-17T19:05:12.365Z,62.32
2024-01-17T19:07:17.017Z,62.41
2024-01-17T19:09:20.318Z,62.67
2024-01-17T19:11:22.508Z,62.89
2024-01-17T19:13:25.185Z,63.21
2024-01-17T19:15:30.051Z,62.92
2024-01-17T19:17:31.989Z,63.08
2024-01-17T19:19:33.576Z,63.12
2024-01-17T19:21:35.189Z,63.21
2024-01-17T19:23:37.855Z,63.34
2024-01-17T19:25:39.509Z,63.35
2024-01-17T19:27:41.337Z,63.44
2024-01-17T19:29:42.968Z,63.41
2024-01-17T19:31:45.974Z,63.41
2024-01-17T19:33:47.780Z,63.49
2024-01-17T19:35:49.547Z,63.51
2024-01-17T19:37:51.293Z,63.57
2024-01-17T19:39:52.914Z,63.58
2024-01-17T19:41:54.621Z,63.62
2024-01-17T19:43:56.206Z,63.58
2024-01-17T19:45:57.874Z,63.86
2024-01-17T19:47:59.498Z,63.92
2024-01-17T19:50:02.335Z,63.94
2024-01-17T19:52:04.084Z,64.24
2024-01-17T19:54:05.742Z,64.57
2024-01-17T19:56:07.922Z,64.50
2024-01-17T19:58:10.087Z,64.68
2024-01-17T20:00:14.365Z,64.61
2024-01-17T20:02:15.926Z,64.85
2024-01-17T20:04:19.310Z,64.96
2024-01-17T20:06:22.964Z,65.35
2024-01-17T20:08:24.711Z,65.42
2024-01-17T20:10:26.952Z,65.62
2024-01-17T20:12:29.149Z,65.79
2024-01-17T20:14:30.883Z,65.52
2024-01-17T20:16:33.617Z,65.83
2024-01-17T20:18:35.490Z,65.78
2024-01-17T20:20:37.328Z,65.80
2024-01-17T20:22:38.859Z,65.81
2024-01-17T20:24:40.476Z,65.77
2024-01-17T20:26:42.288Z,65.67
2024-01-17T20:28:43.840Z,65.84
2024-01-17T20:30:48.208Z,65.54
2024-01-17T20:32:50.943Z,65.66
2024-01-17T20:34:52.798Z,65.55
2024-01-17T20:36:57.617Z,65.59
2024-01-17T20:38:59.303Z,65.76
2024-01-17T20:41:00.920Z,65.75
2024-01-17T20:43:04.683Z,65.73
2024-01-17T20:45:09.457Z,65.77
2024-01-17T20:47:11.288Z,65.86
2024-01-17T20:49:13.015Z,65.97
2024-01-17T20:51:25.619Z,65.96
2024-01-17T20:53:27.479Z,65.83
2024-01-17T20:55:29.013Z,66.02
2024-01-17T20:57:32.588Z,66.03
2024-01-17T20:59:35.390Z,65.97
2024-01-17T21:01:38.731Z,65.96
2024-01-17T21:03:40.523Z,66.07
2024-01-17T21:05:43.556Z,66.07
2024-01-17T21:07:45.422Z,65.90
2024-01-17T21:09:47.199Z,65.99
2024-01-17T21:11:49.025Z,65.87
2024-01-17T21:13:50.915Z,66.10
2024-01-17T21:15:52.695Z,65.97
2024-01-17T21:17:54.397Z,66.15
2024-01-17T21:19:56.688Z,66.25
2024-01-17T21:21:58.445Z,66.22
2024-01-17T21:24:00.293Z,66.17
2024-01-17T21:26:02.316Z,66.24
2024-01-17T21:28:06.381Z,66.25
2024-01-17T21:30:08.771Z,66.35
2024-01-17T21:32:10.312Z,66.24
2024-01-17T21:34:12.198Z,66.26
2024-01-17T21:36:24.282Z,66.15
2024-01-17T21:38:25.948Z,66.15
2024-01-17T21:40:27.549Z,66.12
2024-01-17T21:42:29.263Z,66.17
2024-01-17T21:44:32.391Z,66.14
2024-01-17T21:46:37.424Z,66.12
2024-01-17T21:48:41.489Z,66.09
2024-01-17T21:50:43.099Z,66.06
2024-01-17T21:52:44.618Z,66.34
2024-01-17T21:54:46.184Z,66.27
2024-01-17T21:56:47.989Z,66.12
2024-01-17T21:58:49.570Z,66.39
2024-01-17T22:00:51.205Z,66.57
2024-01-17T22:02:53.067Z,66.46
2024-01-17T22:04:54.716Z,66.44
2024-01-17T22:06:57.219Z,66.19
2024-01-17T22:08:59.862Z,66.21
2024-01-17T22:11:01.659Z,66.55
2024-01-17T22:13:03.730Z,66.57
2024-01-17T22:15:05.900Z,66.74
2024-01-17T22:17:07.558Z,66.90
2024-01-17T22:19:09.368Z,66.96
2024-01-17T22:21:11.184Z,67.15
2024-01-17T22:23:13.104Z,67.05
2024-01-17T22:25:14.734Z,66.85
2024-01-17T22:27:16.377Z,66.78
2024-01-17T22:29:18.073Z,66.56
2024-01-17T22:31:25.242Z,66.49
2024-01-17T22:33:27.049Z,66.29
2024-01-17T22:35:28.855Z,66.18
2024-01-17T22:37:30.511Z,66.41
2024-01-17T22:39:32.243Z,66.24
2024-01-17T22:41:34.022Z,66.04
2024-01-17T22:43:35.626Z,66.07
2024-01-17T22:45:37.237Z,66.08
2024-01-17T22:47:39.085Z,66.04
2024-01-17T22:49:40.776Z,66.29
2024-01-17T22:51:42.630Z,66.15
2024-01-17T22:53:44.349Z,66.39
2024-01-17T22:55:46.023Z,66.31
2024-01-17T22:57:48.658Z,66.25
2024-01-17T22:59:50.258Z,66.38
2024-01-17T23:01:52.195Z,66.27
2024-01-17T23:03:54.079Z,66.36
2024-01-17T23:05:55.780Z,66.25
2024-01-17T23:08:05.190Z,66.18
2024-01-17T23:10:12.937Z,66.32
2024-01-17T23:12:14.623Z,66.41
2024-01-17T23:14:17.379Z,66.37
2024-01-17T23:16:19.219Z,66.33
2024-01-17T23:18:21.050Z,66.42
2024-01-17T23:20:22.984Z,66.38
2024-01-17T23:22:24.818Z,66.64
2024-01-17T23:24:26.724Z,66.41
2024-01-17T23:26:28.533Z,66.59
2024-01-17T23:28:30.267Z,66.65
2024-01-17T23:30:32.007Z,66.60
2024-01-17T23:32:34.026Z,66.42
2024-01-17T23:34:35.852Z,66.65
2024-01-17T23:36:37.825Z,66.74
2024-01-17T23:38:43.418Z,66.96
2024-01-17T23:40:45.132Z,66.42
2024-01-17T23:42:46.976Z,66.44
2024-01-17T23:44:48.955Z,66.74
2024-01-17T23:46:50.690Z,66.91
2024-01-17T23:48:52.634Z,66.76
2024-01-17T23:50:54.788Z,66.51
2024-01-17T23:52:56.843Z,66.31
2024-01-17T23:54:58.667Z,66.57
2024-01-17T23:57:01.034Z,66.89
2024-01-17T23:59:02.845Z,66.84
